sensor_id;sensor_type;location;lat;lon;timestamp;P1;durP1;ratioP1;P2;durP2;ratioP2
52878;SDS011;38747;53.140;6.498;2023-12-04T00:01:14;24.67;;;11.20;;
52878;SDS011;38747;53.140;6.498;2023-12-04T00:03:40;21.67;;;9.77;;
52878;SDS011;38747;53.140;6.498;2023-12-04T00:06:08;21.95;;;9.95;;
52878;SDS011;38747;53.140;6.498;2023-12-04T00:08:37;21.63;;;10.63;;
52878;SDS011;38747;53.140;6.498;2023-12-04T00:11:04;21.33;;;9.40;;
52878;SDS011;38747;53.140;6.498;2023-12-04T00:13:30;22.63;;;10.18;;
52878;SDS011;38747;53.140;6.498;2023-12-04T00:15:55;23.67;;;9.57;;
52878;SDS011;38747;53.140;6.498;2023-12-04T00:18:21;23.07;;;9.10;;
52878;SDS011;38747;53.140;6.498;2023-12-04T00:20:47;21.73;;;8.93;;
52878;SDS011;38747;53.140;6.498;2023-12-04T00:23:13;26.47;;;10.77;;
52878;SDS011;38747;53.140;6.498;2023-12-04T00:25:38;20.35;;;8.55;;
52878;SDS011;38747;53.140;6.498;2023-12-04T00:28:04;21.90;;;10.50;;
52878;SDS011;38747;53.140;6.498;2023-12-04T00:30:30;21.40;;;10.27;;
52878;SDS011;38747;53.140;6.498;2023-12-04T00:32:56;20.60;;;9.90;;
52878;SDS011;38747;53.140;6.498;2023-12-04T00:35:21;20.85;;;9.63;;
52878;SDS011;38747;53.140;6.498;2023-12-04T00:37:47;22.03;;;9.87;;
52878;SDS011;38747;53.140;6.498;2023-12-04T00:40:12;21.87;;;9.80;;
52878;SDS011;38747;53.140;6.498;2023-12-04T00:42:38;23.30;;;10.20;;
52878;SDS011;38747;53.140;6.498;2023-12-04T00:45:03;20.17;;;9.47;;
52878;SDS011;38747;53.140;6.498;2023-12-04T00:47:29;22.30;;;10.45;;
52878;SDS011;38747;53.140;6.498;2023-12-04T00:49:55;23.97;;;10.13;;
52878;SDS011;38747;53.140;6.498;2023-12-04T00:52:21;23.10;;;10.32;;
52878;SDS011;38747;53.140;6.498;2023-12-04T00:54:46;21.67;;;9.40;;
52878;SDS011;38747;53.140;6.498;2023-12-04T00:57:15;21.83;;;10.43;;
52878;SDS011;38747;53.140;6.498;2023-12-04T00:59:40;20.03;;;9.43;;
52878;SDS011;38747;53.140;6.498;2023-12-04T01:02:06;21.23;;;9.80;;
52878;SDS011;38747;53.140;6.498;2023-12-04T01:04:32;21.13;;;9.82;;
52878;SDS011;38747;53.140;6.498;2023-12-04T01:06:58;23.00;;;10.27;;
52878;SDS011;38747;53.140;6.498;2023-12-04T01:09:23;24.60;;;10.53;;
52878;SDS011;38747;53.140;6.498;2023-12-04T01:11:52;21.70;;;9.70;;
52878;SDS011;38747;53.140;6.498;2023-12-04T01:14:20;20.42;;;9.38;;
52878;SDS011;38747;53.140;6.498;2023-12-04T01:16:47;23.95;;;9.93;;
52878;SDS011;38747;53.140;6.498;2023-12-04T01:19:13;22.95;;;10.35;;
52878;SDS011;38747;53.140;6.498;2023-12-04T01:21:38;23.90;;;10.07;;
52878;SDS011;38747;53.140;6.498;2023-12-04T01:24:04;22.08;;;9.00;;
52878;SDS011;38747;53.140;6.498;2023-12-04T01:26:30;19.67;;;9.60;;
52878;SDS011;38747;53.140;6.498;2023-12-04T01:28:56;19.77;;;9.68;;
52878;SDS011;38747;53.140;6.498;2023-12-04T01:31:21;22.60;;;10.10;;
52878;SDS011;38747;53.140;6.498;2023-12-04T01:33:47;20.10;;;9.82;;
52878;SDS011;38747;53.140;6.498;2023-12-04T01:36:13;20.50;;;9.60;;
52878;SDS011;38747;53.140;6.498;2023-12-04T01:38:38;19.33;;;9.37;;
52878;SDS011;38747;53.140;6.498;2023-12-04T01:41:04;20.93;;;9.23;;
52878;SDS011;38747;53.140;6.498;2023-12-04T01:43:30;22.25;;;9.52;;
52878;SDS011;38747;53.140;6.498;2023-12-04T01:45:56;23.17;;;10.10;;
52878;SDS011;38747;53.140;6.498;2023-12-04T01:48:22;21.08;;;9.43;;
52878;SDS011;38747;53.140;6.498;2023-12-04T01:50:49;18.77;;;9.85;;
52878;SDS011;38747;53.140;6.498;2023-12-04T01:53:16;19.75;;;8.80;;
52878;SDS011;38747;53.140;6.498;2023-12-04T01:55:42;21.77;;;9.00;;
52878;SDS011;38747;53.140;6.498;2023-12-04T01:58:08;20.67;;;9.65;;
52878;SDS011;38747;53.140;6.498;2023-12-04T02:00:35;21.45;;;9.52;;
52878;SDS011;38747;53.140;6.498;2023-12-04T02:03:01;18.00;;;8.70;;
52878;SDS011;38747;53.140;6.498;2023-12-04T02:05:26;19.80;;;9.25;;
52878;SDS011;38747;53.140;6.498;2023-12-04T02:07:53;17.93;;;9.20;;
52878;SDS011;38747;53.140;6.498;2023-12-04T02:10:20;22.10;;;9.65;;
52878;SDS011;38747;53.140;6.498;2023-12-04T02:12:47;23.83;;;9.65;;
52878;SDS011;38747;53.140;6.498;2023-12-04T02:15:13;20.60;;;8.52;;
52878;SDS011;38747;53.140;6.498;2023-12-04T02:17:40;18.50;;;8.82;;
52878;SDS011;38747;53.140;6.498;2023-12-04T02:20:07;19.00;;;8.20;;
52878;SDS011;38747;53.140;6.498;2023-12-04T02:22:34;19.00;;;8.68;;
52878;SDS011;38747;53.140;6.498;2023-12-04T02:24:59;18.30;;;8.55;;
52878;SDS011;38747;53.140;6.498;2023-12-04T02:27:30;18.93;;;8.70;;
52878;SDS011;38747;53.140;6.498;2023-12-04T02:30:04;19.77;;;8.93;;
52878;SDS011;38747;53.140;6.498;2023-12-04T02:32:31;19.40;;;8.88;;
52878;SDS011;38747;53.140;6.498;2023-12-04T02:35:01;18.95;;;8.85;;
52878;SDS011;38747;53.140;6.498;2023-12-04T02:37:29;18.30;;;8.70;;
52878;SDS011;38747;53.140;6.498;2023-12-04T02:39:55;21.50;;;9.47;;
52878;SDS011;38747;53.140;6.498;2023-12-04T02:42:24;21.00;;;8.60;;
52878;SDS011;38747;53.140;6.498;2023-12-04T02:44:50;19.88;;;9.05;;
52878;SDS011;38747;53.140;6.498;2023-12-04T02:47:16;17.58;;;7.72;;
52878;SDS011;38747;53.140;6.498;2023-12-04T02:49:42;20.90;;;8.77;;
52878;SDS011;38747;53.140;6.498;2023-12-04T02:52:08;21.87;;;9.13;;
52878;SDS011;38747;53.140;6.498;2023-12-04T02:54:34;20.15;;;8.80;;
52878;SDS011;38747;53.140;6.498;2023-12-04T02:57:00;19.73;;;9.23;;
52878;SDS011;38747;53.140;6.498;2023-12-04T02:59:25;20.25;;;8.27;;
52878;SDS011;38747;53.140;6.498;2023-12-04T03:01:51;21.40;;;9.40;;
52878;SDS011;38747;53.140;6.498;2023-12-04T03:04:17;18.65;;;8.30;;
52878;SDS011;38747;53.140;6.498;2023-12-04T03:06:44;20.27;;;8.90;;
52878;SDS011;38747;53.140;6.498;2023-12-04T03:09:09;18.17;;;8.57;;
52878;SDS011;38747;53.140;6.498;2023-12-04T03:11:35;19.43;;;9.10;;
52878;SDS011;38747;53.140;6.498;2023-12-04T03:14:04;19.65;;;9.20;;
52878;SDS011;38747;53.140;6.498;2023-12-04T03:16:29;19.37;;;9.13;;
52878;SDS011;38747;53.140;6.498;2023-12-04T03:18:55;21.30;;;8.38;;
52878;SDS011;38747;53.140;6.498;2023-12-04T03:21:20;20.53;;;9.27;;
52878;SDS011;38747;53.140;6.498;2023-12-04T03:23:46;19.38;;;8.30;;
52878;SDS011;38747;53.140;6.498;2023-12-04T03:26:12;18.53;;;7.90;;
52878;SDS011;38747;53.140;6.498;2023-12-04T03:28:38;21.87;;;9.53;;
52878;SDS011;38747;53.140;6.498;2023-12-04T03:31:05;22.67;;;10.05;;
52878;SDS011;38747;53.140;6.498;2023-12-04T03:33:31;19.10;;;8.57;;
52878;SDS011;38747;53.140;6.498;2023-12-04T03:35:58;22.07;;;9.33;;
52878;SDS011;38747;53.140;6.498;2023-12-04T03:38:24;20.63;;;8.88;;
52878;SDS011;38747;53.140;6.498;2023-12-04T03:40:50;23.15;;;9.25;;
52878;SDS011;38747;53.140;6.498;2023-12-04T03:43:15;19.37;;;8.07;;
52878;SDS011;38747;53.140;6.498;2023-12-04T03:45:41;22.60;;;8.65;;
52878;SDS011;38747;53.140;6.498;2023-12-04T03:48:06;19.10;;;8.50;;
52878;SDS011;38747;53.140;6.498;2023-12-04T03:50:32;20.77;;;9.40;;
52878;SDS011;38747;53.140;6.498;2023-12-04T03:52:58;19.00;;;8.23;;
52878;SDS011;38747;53.140;6.498;2023-12-04T03:55:23;22.30;;;9.17;;
52878;SDS011;38747;53.140;6.498;2023-12-04T03:57:49;18.37;;;8.47;;
52878;SDS011;38747;53.140;6.498;2023-12-04T04:00:14;20.55;;;8.00;;
52878;SDS011;38747;53.140;6.498;2023-12-04T04:02:41;18.53;;;8.20;;
52878;SDS011;38747;53.140;6.498;2023-12-04T04:05:08;21.30;;;8.88;;
52878;SDS011;38747;53.140;6.498;2023-12-04T04:07:33;22.30;;;9.15;;
52878;SDS011;38747;53.140;6.498;2023-12-04T04:09:59;21.20;;;8.53;;
52878;SDS011;38747;53.140;6.498;2023-12-04T04:12:25;19.20;;;8.32;;
52878;SDS011;38747;53.140;6.498;2023-12-04T04:14:53;22.27;;;8.95;;
52878;SDS011;38747;53.140;6.498;2023-12-04T04:17:18;21.13;;;8.30;;
52878;SDS011;38747;53.140;6.498;2023-12-04T04:19:45;21.57;;;9.47;;
52878;SDS011;38747;53.140;6.498;2023-12-04T04:22:11;19.98;;;8.70;;
52878;SDS011;38747;53.140;6.498;2023-12-04T04:24:37;18.85;;;9.18;;
52878;SDS011;38747;53.140;6.498;2023-12-04T04:27:02;23.27;;;9.70;;
52878;SDS011;38747;53.140;6.498;2023-12-04T04:29:28;20.65;;;8.70;;
52878;SDS011;38747;53.140;6.498;2023-12-04T04:31:54;20.67;;;8.97;;
52878;SDS011;38747;53.140;6.498;2023-12-04T04:34:20;18.10;;;7.97;;
52878;SDS011;38747;53.140;6.498;2023-12-04T04:36:46;19.60;;;8.73;;
52878;SDS011;38747;53.140;6.498;2023-12-04T04:39:13;18.83;;;8.23;;
52878;SDS011;38747;53.140;6.498;2023-12-04T04:41:38;22.37;;;9.33;;
52878;SDS011;38747;53.140;6.498;2023-12-04T04:44:05;19.42;;;8.27;;
52878;SDS011;38747;53.140;6.498;2023-12-04T04:46:30;17.65;;;7.80;;
52878;SDS011;38747;53.140;6.498;2023-12-04T04:48:59;21.95;;;9.23;;
52878;SDS011;38747;53.140;6.498;2023-12-04T04:51:25;20.17;;;8.17;;
52878;SDS011;38747;53.140;6.498;2023-12-04T04:53:55;18.63;;;7.88;;
52878;SDS011;38747;53.140;6.498;2023-12-04T04:56:21;20.03;;;9.37;;
52878;SDS011;38747;53.140;6.498;2023-12-04T04:58:46;17.55;;;7.40;;
52878;SDS011;38747;53.140;6.498;2023-12-04T05:01:12;19.80;;;8.40;;
52878;SDS011;38747;53.140;6.498;2023-12-04T05:03:37;20.30;;;9.13;;
52878;SDS011;38747;53.140;6.498;2023-12-04T05:06:03;21.88;;;9.07;;
52878;SDS011;38747;53.140;6.498;2023-12-04T05:08:29;19.35;;;8.25;;
52878;SDS011;38747;53.140;6.498;2023-12-04T05:10:57;19.83;;;7.67;;
52878;SDS011;38747;53.140;6.498;2023-12-04T05:13:23;20.13;;;8.07;;
52878;SDS011;38747;53.140;6.498;2023-12-04T05:15:49;19.30;;;8.30;;
52878;SDS011;38747;53.140;6.498;2023-12-04T05:18:14;19.00;;;8.32;;
52878;SDS011;38747;53.140;6.498;2023-12-04T05:20:40;18.27;;;8.30;;
52878;SDS011;38747;53.140;6.498;2023-12-04T05:23:05;18.77;;;8.27;;
52878;SDS011;38747;53.140;6.498;2023-12-04T05:25:31;19.00;;;8.68;;
52878;SDS011;38747;53.140;6.498;2023-12-04T05:27:57;16.83;;;7.40;;
52878;SDS011;38747;53.140;6.498;2023-12-04T05:30:23;18.20;;;7.72;;
52878;SDS011;38747;53.140;6.498;2023-12-04T05:32:49;20.00;;;8.43;;
52878;SDS011;38747;53.140;6.498;2023-12-04T05:35:15;17.70;;;7.97;;
52878;SDS011;38747;53.140;6.498;2023-12-04T05:37:42;18.43;;;8.00;;
52878;SDS011;38747;53.140;6.498;2023-12-04T05:40:08;19.75;;;8.02;;
52878;SDS011;38747;53.140;6.498;2023-12-04T05:42:36;17.65;;;7.65;;
52878;SDS011;38747;53.140;6.498;2023-12-04T05:45:01;21.53;;;8.20;;
52878;SDS011;38747;53.140;6.498;2023-12-04T05:47:27;19.38;;;9.00;;
52878;SDS011;38747;53.140;6.498;2023-12-04T05:49:53;18.83;;;7.77;;
52878;SDS011;38747;53.140;6.498;2023-12-04T05:52:19;18.23;;;7.50;;
52878;SDS011;38747;53.140;6.498;2023-12-04T05:54:44;17.90;;;7.90;;
52878;SDS011;38747;53.140;6.498;2023-12-04T05:57:10;19.05;;;8.48;;
52878;SDS011;38747;53.140;6.498;2023-12-04T05:59:36;20.03;;;8.60;;
52878;SDS011;38747;53.140;6.498;2023-12-04T06:02:02;17.10;;;7.47;;
52878;SDS011;38747;53.140;6.498;2023-12-04T06:04:28;16.80;;;8.30;;
52878;SDS011;38747;53.140;6.498;2023-12-04T06:06:53;17.10;;;7.55;;
52878;SDS011;38747;53.140;6.498;2023-12-04T06:09:19;16.97;;;7.17;;
52878;SDS011;38747;53.140;6.498;2023-12-04T06:11:44;17.63;;;7.37;;
52878;SDS011;38747;53.140;6.498;2023-12-04T06:14:10;21.17;;;8.35;;
52878;SDS011;38747;53.140;6.498;2023-12-04T06:16:36;17.40;;;7.33;;
52878;SDS011;38747;53.140;6.498;2023-12-04T06:19:02;16.70;;;6.60;;
52878;SDS011;38747;53.140;6.498;2023-12-04T06:21:29;18.42;;;7.15;;
52878;SDS011;38747;53.140;6.498;2023-12-04T06:23:56;19.48;;;7.57;;
52878;SDS011;38747;53.140;6.498;2023-12-04T06:26:22;18.83;;;7.75;;
52878;SDS011;38747;53.140;6.498;2023-12-04T06:28:48;16.87;;;6.93;;
52878;SDS011;38747;53.140;6.498;2023-12-04T06:31:14;19.20;;;7.63;;
52878;SDS011;38747;53.140;6.498;2023-12-04T06:33:40;16.52;;;7.65;;
52878;SDS011;38747;53.140;6.498;2023-12-04T06:36:06;17.13;;;7.22;;
52878;SDS011;38747;53.140;6.498;2023-12-04T06:38:32;16.13;;;6.90;;
52878;SDS011;38747;53.140;6.498;2023-12-04T06:41:00;16.43;;;7.50;;
52878;SDS011;38747;53.140;6.498;2023-12-04T06:43:26;19.08;;;7.35;;
52878;SDS011;38747;53.140;6.498;2023-12-04T06:45:53;19.33;;;7.45;;
52878;SDS011;38747;53.140;6.498;2023-12-04T06:48:22;16.95;;;6.90;;
52878;SDS011;38747;53.140;6.498;2023-12-04T06:50:48;17.83;;;7.00;;
52878;SDS011;38747;53.140;6.498;2023-12-04T06:53:13;15.50;;;7.13;;
52878;SDS011;38747;53.140;6.498;2023-12-04T06:55:39;17.50;;;7.50;;
52878;SDS011;38747;53.140;6.498;2023-12-04T06:58:05;21.03;;;8.37;;
52878;SDS011;38747;53.140;6.498;2023-12-04T07:00:30;19.00;;;8.03;;
52878;SDS011;38747;53.140;6.498;2023-12-04T07:02:56;16.65;;;7.75;;
52878;SDS011;38747;53.140;6.498;2023-12-04T07:05:21;15.00;;;7.27;;
52878;SDS011;38747;53.140;6.498;2023-12-04T07:07:47;17.88;;;7.55;;
52878;SDS011;38747;53.140;6.498;2023-12-04T07:10:12;20.00;;;8.77;;
52878;SDS011;38747;53.140;6.498;2023-12-04T07:12:40;17.35;;;7.43;;
52878;SDS011;38747;53.140;6.498;2023-12-04T07:15:07;16.73;;;7.10;;
52878;SDS011;38747;53.140;6.498;2023-12-04T07:17:34;17.77;;;7.90;;
52878;SDS011;38747;53.140;6.498;2023-12-04T07:20:00;16.55;;;7.38;;
52878;SDS011;38747;53.140;6.498;2023-12-04T07:22:25;15.85;;;7.78;;
52878;SDS011;38747;53.140;6.498;2023-12-04T07:24:51;14.63;;;6.77;;
52878;SDS011;38747;53.140;6.498;2023-12-04T07:27:17;16.13;;;7.37;;
52878;SDS011;38747;53.140;6.498;2023-12-04T07:29:43;16.20;;;6.97;;
52878;SDS011;38747;53.140;6.498;2023-12-04T07:32:08;18.33;;;7.45;;
52878;SDS011;38747;53.140;6.498;2023-12-04T07:34:34;15.70;;;7.77;;
52878;SDS011;38747;53.140;6.498;2023-12-04T07:36:59;18.17;;;7.63;;
52878;SDS011;38747;53.140;6.498;2023-12-04T07:39:25;17.40;;;6.70;;
52878;SDS011;38747;53.140;6.498;2023-12-04T07:41:50;14.87;;;6.53;;
52878;SDS011;38747;53.140;6.498;2023-12-04T07:44:16;16.48;;;6.93;;
52878;SDS011;38747;53.140;6.498;2023-12-04T07:46:42;15.87;;;6.70;;
52878;SDS011;38747;53.140;6.498;2023-12-04T07:49:07;16.33;;;6.40;;
52878;SDS011;38747;53.140;6.498;2023-12-04T07:51:33;14.85;;;6.30;;
52878;SDS011;38747;53.140;6.498;2023-12-04T07:53:58;16.20;;;7.17;;
52878;SDS011;38747;53.140;6.498;2023-12-04T07:56:24;15.97;;;7.00;;
52878;SDS011;38747;53.140;6.498;2023-12-04T07:58:50;14.87;;;6.50;;
52878;SDS011;38747;53.140;6.498;2023-12-04T08:01:16;14.75;;;6.55;;
52878;SDS011;38747;53.140;6.498;2023-12-04T08:03:41;13.20;;;6.30;;
52878;SDS011;38747;53.140;6.498;2023-12-04T08:06:07;14.33;;;5.80;;
52878;SDS011;38747;53.140;6.498;2023-12-04T08:08:33;14.48;;;6.00;;
52878;SDS011;38747;53.140;6.498;2023-12-04T08:10:59;14.77;;;6.95;;
52878;SDS011;38747;53.140;6.498;2023-12-04T08:13:25;15.33;;;5.60;;
52878;SDS011;38747;53.140;6.498;2023-12-04T08:15:50;12.98;;;5.85;;
52878;SDS011;38747;53.140;6.498;2023-12-04T08:18:16;15.23;;;7.13;;
52878;SDS011;38747;53.140;6.498;2023-12-04T08:20:41;13.57;;;6.03;;
52878;SDS011;38747;53.140;6.498;2023-12-04T08:23:07;14.52;;;6.03;;
52878;SDS011;38747;53.140;6.498;2023-12-04T08:25:33;15.85;;;6.88;;
52878;SDS011;38747;53.140;6.498;2023-12-04T08:28:01;13.98;;;5.97;;
52878;SDS011;38747;53.140;6.498;2023-12-04T08:30:27;13.10;;;5.60;;
52878;SDS011;38747;53.140;6.498;2023-12-04T08:32:53;15.90;;;6.22;;
52878;SDS011;38747;53.140;6.498;2023-12-04T08:35:19;18.73;;;6.40;;
52878;SDS011;38747;53.140;6.498;2023-12-04T08:37:45;14.60;;;6.23;;
52878;SDS011;38747;53.140;6.498;2023-12-04T08:40:10;11.93;;;5.07;;
52878;SDS011;38747;53.140;6.498;2023-12-04T08:42:37;13.82;;;5.55;;
52878;SDS011;38747;53.140;6.498;2023-12-04T08:45:03;12.37;;;4.80;;
52878;SDS011;38747;53.140;6.498;2023-12-04T08:47:31;12.55;;;5.53;;
52878;SDS011;38747;53.140;6.498;2023-12-04T08:49:56;11.45;;;5.28;;
52878;SDS011;38747;53.140;6.498;2023-12-04T08:52:22;11.90;;;5.60;;
52878;SDS011;38747;53.140;6.498;2023-12-04T08:54:48;14.75;;;5.95;;
52878;SDS011;38747;53.140;6.498;2023-12-04T08:57:13;13.23;;;5.70;;
52878;SDS011;38747;53.140;6.498;2023-12-04T08:59:39;13.85;;;5.85;;
52878;SDS011;38747;53.140;6.498;2023-12-04T09:02:05;13.83;;;5.53;;
52878;SDS011;38747;53.140;6.498;2023-12-04T09:04:31;14.77;;;5.78;;
52878;SDS011;38747;53.140;6.498;2023-12-04T09:06:57;13.90;;;5.68;;
52878;SDS011;38747;53.140;6.498;2023-12-04T09:09:23;12.30;;;5.40;;
52878;SDS011;38747;53.140;6.498;2023-12-04T09:11:48;13.02;;;5.20;;
52878;SDS011;38747;53.140;6.498;2023-12-04T09:14:14;11.90;;;5.20;;
52878;SDS011;38747;53.140;6.498;2023-12-04T09:16:40;13.75;;;5.97;;
52878;SDS011;38747;53.140;6.498;2023-12-04T09:19:06;12.45;;;5.00;;
52878;SDS011;38747;53.140;6.498;2023-12-04T09:21:32;12.50;;;5.23;;
52878;SDS011;38747;53.140;6.498;2023-12-04T09:23:58;11.38;;;5.45;;
52878;SDS011;38747;53.140;6.498;2023-12-04T09:26:23;12.20;;;5.40;;
52878;SDS011;38747;53.140;6.498;2023-12-04T09:28:49;12.63;;;5.20;;
52878;SDS011;38747;53.140;6.498;2023-12-04T09:31:14;12.15;;;5.22;;
52878;SDS011;38747;53.140;6.498;2023-12-04T09:33:40;12.77;;;5.03;;
52878;SDS011;38747;53.140;6.498;2023-12-04T09:36:06;13.25;;;5.28;;
52878;SDS011;38747;53.140;6.498;2023-12-04T09:38:32;11.37;;;5.13;;
52878;SDS011;38747;53.140;6.498;2023-12-04T09:40:58;11.48;;;5.57;;
52878;SDS011;38747;53.140;6.498;2023-12-04T09:43:27;11.07;;;4.50;;
52878;SDS011;38747;53.140;6.498;2023-12-04T09:45:55;11.83;;;5.33;;
52878;SDS011;38747;53.140;6.498;2023-12-04T09:48:22;10.57;;;4.93;;
52878;SDS011;38747;53.140;6.498;2023-12-04T09:50:52;12.30;;;4.80;;
52878;SDS011;38747;53.140;6.498;2023-12-04T09:53:19;12.57;;;4.90;;
52878;SDS011;38747;53.140;6.498;2023-12-04T09:55:49;12.27;;;5.38;;
52878;SDS011;38747;53.140;6.498;2023-12-04T09:58:16;10.83;;;5.00;;
52878;SDS011;38747;53.140;6.498;2023-12-04T10:00:46;11.95;;;4.78;;
52878;SDS011;38747;53.140;6.498;2023-12-04T10:03:12;12.05;;;4.70;;
52878;SDS011;38747;53.140;6.498;2023-12-04T10:05:41;10.87;;;5.07;;
52878;SDS011;38747;53.140;6.498;2023-12-04T10:08:09;9.07;;;4.18;;
52878;SDS011;38747;53.140;6.498;2023-12-04T10:10:34;13.45;;;4.88;;
52878;SDS011;38747;53.140;6.498;2023-12-04T10:13:00;10.73;;;4.63;;
52878;SDS011;38747;53.140;6.498;2023-12-04T10:15:25;11.60;;;4.93;;
52878;SDS011;38747;53.140;6.498;2023-12-04T10:17:51;9.68;;;4.90;;
52878;SDS011;38747;53.140;6.498;2023-12-04T10:20:20;10.88;;;5.28;;
52878;SDS011;38747;53.140;6.498;2023-12-04T10:22:57;11.30;;;4.47;;
52878;SDS011;38747;53.140;6.498;2023-12-04T10:25:29;12.82;;;4.97;;
52878;SDS011;38747;53.140;6.498;2023-12-04T10:28:10;9.50;;;4.17;;
52878;SDS011;38747;53.140;6.498;2023-12-04T10:30:37;9.75;;;4.20;;
52878;SDS011;38747;53.140;6.498;2023-12-04T10:33:04;11.77;;;4.90;;
52878;SDS011;38747;53.140;6.498;2023-12-04T10:35:31;11.50;;;4.55;;
52878;SDS011;38747;53.140;6.498;2023-12-04T10:38:01;11.25;;;5.10;;
52878;SDS011;38747;53.140;6.498;2023-12-04T10:40:31;11.93;;;5.43;;
52878;SDS011;38747;53.140;6.498;2023-12-04T10:43:09;10.90;;;5.13;;
52878;SDS011;38747;53.140;6.498;2023-12-04T10:45:43;10.40;;;4.35;;
52878;SDS011;38747;53.140;6.498;2023-12-04T10:48:10;11.13;;;4.93;;
52878;SDS011;38747;53.140;6.498;2023-12-04T10:50:37;11.85;;;4.80;;
52878;SDS011;38747;53.140;6.498;2023-12-04T10:53:04;11.47;;;4.70;;
52878;SDS011;38747;53.140;6.498;2023-12-04T10:55:31;13.13;;;5.15;;
52878;SDS011;38747;53.140;6.498;2023-12-04T10:57:57;11.02;;;4.75;;
52878;SDS011;38747;53.140;6.498;2023-12-04T11:00:25;10.23;;;4.78;;
52878;SDS011;38747;53.140;6.498;2023-12-04T11:02:52;12.07;;;4.97;;
52878;SDS011;38747;53.140;6.498;2023-12-04T11:05:22;9.53;;;4.57;;
52878;SDS011;38747;53.140;6.498;2023-12-04T11:07:53;10.38;;;4.53;;
52878;SDS011;38747;53.140;6.498;2023-12-04T11:10:22;9.38;;;4.10;;
52878;SDS011;38747;53.140;6.498;2023-12-04T11:13:06;11.02;;;4.35;;
52878;SDS011;38747;53.140;6.498;2023-12-04T11:15:39;9.60;;;4.53;;
52878;SDS011;38747;53.140;6.498;2023-12-04T11:18:09;11.90;;;5.13;;
52878;SDS011;38747;53.140;6.498;2023-12-04T11:20:44;12.27;;;4.70;;
52878;SDS011;38747;53.140;6.498;2023-12-04T11:23:16;10.80;;;4.72;;
52878;SDS011;38747;53.140;6.498;2023-12-04T11:25:42;9.85;;;4.50;;
52878;SDS011;38747;53.140;6.498;2023-12-04T11:28:09;10.55;;;4.65;;
52878;SDS011;38747;53.140;6.498;2023-12-04T11:30:35;9.33;;;4.03;;
52878;SDS011;38747;53.140;6.498;2023-12-04T11:33:01;10.20;;;3.95;;
52878;SDS011;38747;53.140;6.498;2023-12-04T11:35:29;9.75;;;4.47;;
52878;SDS011;38747;53.140;6.498;2023-12-04T11:37:55;9.80;;;4.00;;
52878;SDS011;38747;53.140;6.498;2023-12-04T11:40:22;10.17;;;4.20;;
52878;SDS011;38747;53.140;6.498;2023-12-04T11:42:47;10.82;;;4.70;;
52878;SDS011;38747;53.140;6.498;2023-12-04T11:45:19;9.98;;;4.45;;
52878;SDS011;38747;53.140;6.498;2023-12-04T11:50:24;11.85;;;4.20;;
52878;SDS011;38747;53.140;6.498;2023-12-04T11:52:50;11.70;;;4.57;;
52878;SDS011;38747;53.140;6.498;2023-12-04T11:55:16;10.43;;;3.72;;
52878;SDS011;38747;53.140;6.498;2023-12-04T11:57:46;9.20;;;3.87;;
52878;SDS011;38747;53.140;6.498;2023-12-04T12:02:48;11.10;;;4.38;;
52878;SDS011;38747;53.140;6.498;2023-12-04T12:05:17;10.05;;;4.15;;
52878;SDS011;38747;53.140;6.498;2023-12-04T12:07:43;9.85;;;4.53;;
52878;SDS011;38747;53.140;6.498;2023-12-04T12:10:10;8.60;;;3.90;;
52878;SDS011;38747;53.140;6.498;2023-12-04T12:12:38;8.63;;;3.60;;
52878;SDS011;38747;53.140;6.498;2023-12-04T12:15:08;11.02;;;3.72;;
52878;SDS011;38747;53.140;6.498;2023-12-04T12:17:34;10.07;;;4.10;;
52878;SDS011;38747;53.140;6.498;2023-12-04T12:20:00;8.93;;;4.05;;
52878;SDS011;38747;53.140;6.498;2023-12-04T12:22:28;10.27;;;4.27;;
52878;SDS011;38747;53.140;6.498;2023-12-04T12:24:54;9.13;;;4.05;;
52878;SDS011;38747;53.140;6.498;2023-12-04T12:27:20;9.60;;;3.75;;
52878;SDS011;38747;53.140;6.498;2023-12-04T12:29:45;9.43;;;3.97;;
52878;SDS011;38747;53.140;6.498;2023-12-04T12:32:11;11.63;;;4.23;;
52878;SDS011;38747;53.140;6.498;2023-12-04T12:34:36;10.88;;;4.20;;
52878;SDS011;38747;53.140;6.498;2023-12-04T12:37:02;9.37;;;4.10;;
52878;SDS011;38747;53.140;6.498;2023-12-04T12:39:30;9.45;;;3.88;;
52878;SDS011;38747;53.140;6.498;2023-12-04T12:41:56;9.88;;;4.20;;
52878;SDS011;38747;53.140;6.498;2023-12-04T12:44:22;9.53;;;4.30;;
52878;SDS011;38747;53.140;6.498;2023-12-04T12:46:48;9.05;;;4.38;;
52878;SDS011;38747;53.140;6.498;2023-12-04T12:49:16;9.00;;;4.23;;
52878;SDS011;38747;53.140;6.498;2023-12-04T12:51:48;8.40;;;3.72;;
52878;SDS011;38747;53.140;6.498;2023-12-04T12:54:13;9.90;;;4.43;;
52878;SDS011;38747;53.140;6.498;2023-12-04T12:56:39;9.03;;;4.00;;
52878;SDS011;38747;53.140;6.498;2023-12-04T12:59:05;9.98;;;3.90;;
52878;SDS011;38747;53.140;6.498;2023-12-04T13:01:34;12.43;;;4.93;;
52878;SDS011;38747;53.140;6.498;2023-12-04T13:04:02;8.95;;;4.03;;
52878;SDS011;38747;53.140;6.498;2023-12-04T13:06:27;9.83;;;4.30;;
52878;SDS011;38747;53.140;6.498;2023-12-04T13:08:53;10.60;;;4.30;;
52878;SDS011;38747;53.140;6.498;2023-12-04T13:11:19;10.03;;;4.70;;
52878;SDS011;38747;53.140;6.498;2023-12-04T13:13:44;10.80;;;4.70;;
52878;SDS011;38747;53.140;6.498;2023-12-04T13:16:10;9.47;;;3.87;;
52878;SDS011;38747;53.140;6.498;2023-12-04T13:18:35;10.10;;;4.33;;
52878;SDS011;38747;53.140;6.498;2023-12-04T13:21:03;9.50;;;4.20;;
52878;SDS011;38747;53.140;6.498;2023-12-04T13:23:29;9.88;;;4.13;;
52878;SDS011;38747;53.140;6.498;2023-12-04T13:25:54;10.43;;;4.40;;
52878;SDS011;38747;53.140;6.498;2023-12-04T13:28:20;9.38;;;4.05;;
52878;SDS011;38747;53.140;6.498;2023-12-04T13:30:46;9.77;;;4.40;;
52878;SDS011;38747;53.140;6.498;2023-12-04T13:33:11;9.60;;;4.27;;
52878;SDS011;38747;53.140;6.498;2023-12-04T13:35:37;9.70;;;4.40;;
52878;SDS011;38747;53.140;6.498;2023-12-04T13:38:02;9.48;;;4.10;;
52878;SDS011;38747;53.140;6.498;2023-12-04T13:40:32;10.05;;;4.43;;
52878;SDS011;38747;53.140;6.498;2023-12-04T13:42:59;9.10;;;4.00;;
52878;SDS011;38747;53.140;6.498;2023-12-04T13:45:43;10.05;;;4.32;;
52878;SDS011;38747;53.140;6.498;2023-12-04T13:48:09;9.63;;;4.20;;
52878;SDS011;38747;53.140;6.498;2023-12-04T13:50:35;10.33;;;3.93;;
52878;SDS011;38747;53.140;6.498;2023-12-04T13:53:00;11.20;;;4.30;;
52878;SDS011;38747;53.140;6.498;2023-12-04T13:55:26;13.97;;;4.47;;
52878;SDS011;38747;53.140;6.498;2023-12-04T13:58:10;9.32;;;4.20;;
52878;SDS011;38747;53.140;6.498;2023-12-04T14:00:56;9.73;;;4.18;;
52878;SDS011;38747;53.140;6.498;2023-12-04T14:03:21;12.07;;;4.30;;
52878;SDS011;38747;53.140;6.498;2023-12-04T14:05:47;10.68;;;4.25;;
52878;SDS011;38747;53.140;6.498;2023-12-04T14:08:12;9.33;;;4.53;;
52878;SDS011;38747;53.140;6.498;2023-12-04T14:10:39;9.82;;;4.28;;
52878;SDS011;38747;53.140;6.498;2023-12-04T14:13:04;11.07;;;4.50;;
52878;SDS011;38747;53.140;6.498;2023-12-04T14:15:30;11.20;;;4.22;;
52878;SDS011;38747;53.140;6.498;2023-12-04T14:17:55;10.97;;;4.77;;
52878;SDS011;38747;53.140;6.498;2023-12-04T14:20:21;10.43;;;4.40;;
52878;SDS011;38747;53.140;6.498;2023-12-04T14:22:47;10.90;;;4.27;;
52878;SDS011;38747;53.140;6.498;2023-12-04T14:25:13;9.25;;;4.40;;
52878;SDS011;38747;53.140;6.498;2023-12-04T14:27:38;9.93;;;4.83;;
52878;SDS011;38747;53.140;6.498;2023-12-04T14:30:10;11.80;;;5.03;;
52878;SDS011;38747;53.140;6.498;2023-12-04T14:32:36;10.73;;;4.63;;
52878;SDS011;38747;53.140;6.498;2023-12-04T14:35:05;10.27;;;4.75;;
52878;SDS011;38747;53.140;6.498;2023-12-04T14:37:32;10.13;;;4.80;;